首页
METAR-TAF:

METAR-TAF

机场 :

杰克逊维尔, 佛罗里达州, 美国

纬度: 30-13-07N, 经度: 081-52-36W, 海拔: 25米

当前天气观测

该预报发布于1小时和8分钟前的02:50 UTC
静风
温度 17°C
湿度 94%
气压 1016 hPa
能見度: 4.8公里
少量云层高于800英尺
多云层高于1800英尺
阴天层高于2700英尺
小毛毛雨

METAR: KVQQ 230250Z 00000KT 03SM -DZ FEW008 BKN018 OVC027 17/16 A3000

时间: 22:58 (03:58 UTC)

预报

该预报发布于1小时和20分钟前的02:38 UTC
预报有效从23日的 03点(UTC)到 23日的 24点(UTC)
风速3节,风向多变
能見度: 8.0公里
多云层高于1000英尺
阴天层高于2000英尺
小雨, 轻雾
短暂存在
从 23日的 03点(UTC)到 23日的 05点(UTC)
能見度: 6.4公里
多云层高于500英尺
轻雾
从 23日的 0500点(UTC)
风速2节,风向多变
能見度: 8.0公里
多云层高于400英尺
阴天层高于800英尺
轻雾
从 23日的 0700点(UTC)
风速2节,风向多变
能見度: 3.2公里
阴天层高于400英尺
轻雾
从 23日的 1400点(UTC)
风速4节,风向北转东北
能見度: 9.7公里
少量云层高于500英尺
多云层高于2500英尺
轻雾
从 23日的 1500点(UTC)
风速7节,风向东北
能見度: 10公里
少量云层高于1000英尺
散云层高于3500英尺
多云层高于8000英尺

TAF: KVQQ 230238Z 2303/2324 VRB03KT 5SM -RA BR BKN010 OVC020 TEMPO 2303/2305 4SM BR BKN005 FM230500 VRB02KT 5SM BR BKN004 OVC008 FM230700 VRB02KT 2SM BR OVC004 FM231400 03004KT 6SM BR FEW005 BKN025 FM231500 04007KT P6SM FEW010 SCT035 BKN080

超过4000个机场的气象观测和天气预报(METAR&TAF报告)。

可查询的气象台以黄色和红色小点在地图上表示。

将鼠标移到小点上方,可查看气象台名称。

然后点击查看天气观测和预报。

如需切换地图:点击带黑十字的绿色按钮放大地图;点击带横线的绿色按钮缩小地图;或者点击绿色箭头查看邻近地区的地图。


METAR-TAF: